Lakeland Linder Regional Airport
KLAL : now visible

Airfield :











YOU CAN JOIN US ON...

 
LOGIN :

Register | Disclaimer

   EN    FR    IT 

 









Legend :    VFR   Marginal VFR   IFR   Intensive IFR   Very Intensive IFR
Visi :
Ceiling :
>= 8 km
>= 3000ft
5 to 8 km
1000 to 3000 ft
1500m to 5 km
500 to 1000 ft
800 to 1500m
200 to 500 ft
< 800m
< 200 ft
Symbols :   Thunderstorms  Fog  Heavy snow  Heavy precipitations  Wind > 20 kt






- Airport Elevation : 142 ft


KLAL - Lakeland Linder Regional

CURRENT METAR :
  • 141950Z 19003KT 10SM VCTS SCT035 30/22 A2998 RMK LGNTG VCTY DST SW

EXPIRED METARs :
  • 141850Z 19003KT 10SM BKN035 34/22 A2998
  • 141745Z 19003KT 10SM BKN046 33/22 A3001

TAF KLAL
Valid from the 14 at 18:00 until the 15 at 18:00 UTC


141720Z 1418/1518 22005KT P6SM VCTS SCT040CB SCT250
TEMPO 1419/1423 VRB15G25KT 3SM TSRA BKN025CB
FM150100 VRB03KT P6SM SCT040 SCT100 BKN250
FM150600 00000KT P6SM FEW035 SCT250
FM151400 24005KT P6SM SCT035 SCT250
KZMA FIR / North America



MET'MAP, your aeronautical weather chart ! - Copyright ORBIFLY December 2007 - Disclaimer

ORBIFLY MET'MAP TEAM :

Programming & Development : Alexandra Zaïnal
Concept & original design : Baudouin d'Aumeries
Assistance for programming : Marc-Olivier Méhu
Technical & hardware support : Manuel Goepfert

Contact : metmap@orbifly.com




SOURCES & CREDITS :

   NOAA       Earth
Advisory